Time;durP1;ratioP1;P1;durP2;ratioP2;P2;SDS_P1;SDS_P2;PMS_P1;PMS_P2;Temp;Humidity;BMP_temperature;BMP_pressure;BME280_temperature;BME280_humidity;BME280_pressure;Samples;Min_cycle;Max_cycle;Signal;HPM_P1;HPM_P2
2023/03/14 00:35:11;;;;;;;10.40;7.43;;;9.20;91.80;;;;;;5836218;23;20619;-81
2023/03/14 01:15:49;;;;;;;11.70;7.20;;;8.60;92.70;;;;;;5793700;23;20575;-79
2023/03/14 01:40:50;;;;;;;8.30;6.27;;;8.50;91.60;;;;;;5620620;24;20407;-82
2023/03/14 02:31:28;;;;;;;8.33;5.97;;;8.00;91.20;;;;;;5512714;24;20628;-82
2023/03/14 02:57:19;;;;;;;8.93;6.00;;;7.90;91.40;;;;;;5627467;24;20223;-81
2023/03/14 03:27:35;;;;;;;6.93;5.70;;;7.60;91.30;;;;;;5582807;24;20183;-81
2023/03/14 03:57:44;;;;;;;8.30;6.20;;;6.80;95.20;;;;;;5693219;24;20605;-79
2023/03/14 04:23:10;;;;;;;7.23;5.67;;;5.90;99.90;;;;;;5539993;24;20652;-81
2023/03/14 04:43:45;;;;;;;8.20;5.77;;;5.60;99.90;;;;;;5617828;24;20207;-79
2023/03/14 05:08:32;;;;;;;9.67;5.13;;;6.90;93.10;;;;;;5534354;24;20719;-81
2023/03/14 05:33:56;;;;;;;9.90;5.33;;;7.60;90.70;;;;;;5496416;24;20763;-79
2023/03/14 05:59:49;;;;;;;7.73;5.60;;;7.40;90.90;;;;;;5593484;24;20224;-82
2023/03/14 06:35:14;;;;;;;6.37;4.50;;;9.00;85.10;;;;;;5594411;24;20198;-81
2023/03/14 07:31:09;;;;;;;7.83;4.90;;;11.50;79.80;;;;;;5691619;24;20443;-83
2023/03/14 08:01:24;;;;;;;5.10;4.33;;;12.70;77.30;;;;;;5462627;25;20720;-80
2023/03/14 08:32:06;;;;;;;4.47;4.07;;;13.40;73.70;;;;;;5618353;24;20412;-82
2023/03/14 09:02:03;;;;;;;5.13;4.63;;;14.60;69.60;;;;;;5608809;24;20402;-81
2023/03/14 09:32:27;;;;;;;5.30;3.87;;;15.50;65.10;;;;;;5556563;25;20980;-82
2023/03/14 10:07:54;;;;;;;4.43;3.50;;;15.80;58.90;;;;;;5857355;23;20705;-83
2023/03/14 10:33:32;;;;;;;6.10;3.73;;;15.80;60.40;;;;;;5754321;24;20265;-83
2023/03/14 11:44:56;;;;;;;6.17;5.00;;;15.60;60.80;;;;;;5717769;24;20564;-83
2023/03/14 12:10:19;;;;;;;8.93;5.07;;;15.50;67.10;;;;;;5710321;24;21050;-83
2023/03/14 12:35:43;;;;;;;6.53;4.40;;;15.80;64.10;;;;;;5607180;24;20196;-85
2023/03/14 13:00:36;;;;;;;6.70;4.87;;;14.70;73.10;;;;;;5543531;25;20666;-83
2023/03/14 13:31:33;;;;;;;10.30;6.03;;;12.50;88.80;;;;;;5825255;24;20462;-83
2023/03/14 14:01:40;;;;;;;9.83;6.33;;;11.50;97.20;;;;;;5777820;24;20971;-83
2023/03/14 14:32:16;;;;;;;7.13;6.07;;;11.20;99.90;;;;;;5753475;24;20519;-81
2023/03/14 15:02:52;;;;;;;12.33;6.57;;;10.80;99.90;;;;;;5744680;24;20215;-82
2023/03/14 16:49:15;;;;;;;11.90;9.30;;;10.40;99.90;;;;;;5693827;24;20378;-80
2023/03/14 17:14:23;;;;;;;13.17;9.80;;;10.20;99.90;;;;;;5711642;24;21067;-82
2023/03/14 17:34:55;;;;;;;13.17;10.50;;;10.20;99.90;;;;;;5760714;24;20235;-82
2023/03/14 18:15:32;;;;;;;12.47;9.00;;;10.60;99.90;;;;;;5924585;23;20260;-84
2023/03/14 18:45:59;;;;;;;13.27;8.90;;;10.50;99.90;;;;;;5920040;23;20224;-81
2023/03/14 19:16:16;;;;;;;10.67;8.53;;;10.10;99.90;;;;;;5946116;23;20183;-81
2023/03/14 19:46:41;;;;;;;10.13;7.70;;;9.80;99.90;;;;;;5951660;23;20173;-81
2023/03/14 20:07:12;;;;;;;12.03;8.53;;;9.40;99.90;;;;;;5803399;24;20464;-82
2023/03/14 20:47:45;;;;;;;12.30;8.87;;;9.50;99.90;;;;;;5886960;23;20775;-81
2023/03/14 21:17:55;;;;;;;13.67;9.80;;;8.80;99.90;;;;;;5665568;24;21410;-79
2023/03/14 21:43:29;;;;;;;15.97;11.40;;;8.30;99.90;;;;;;5599058;25;20197;-82
2023/03/14 22:29:15;;;;;;;13.17;9.77;;;9.20;99.90;;;;;;5739746;24;20687;-81
2023/03/14 22:49:07;;;;;;;15.27;11.00;;;9.40;99.90;;;;;;5672042;24;20553;-79
2023/03/14 23:14:15;;;;;;;13.87;9.30;;;9.50;99.90;;;;;;5594315;24;20581;-81
2023/03/14 23:35:08;;;;;;;14.43;9.50;;;9.30;99.90;;;;;;5843191;24;20326;-80
2023/03/14 23:55:31;;;;;;;14.53;9.93;;;8.80;99.90;;;;;;5743592;24;20672;-83
